Prosperity, SC

2:10 PM EST on February 06, 2016 (GMT -0500)
Lake Murray | | Change Station
CLOSE
Current Station
Personal Weather Station
Location: Prosperity, SC
Elevation: 381 ft
Nearby Weather Stations

Elev 381 ft 34.12 °N, 81.49 °W | Updated 13 minutes ago

Partly Cloudy
Partly Cloudy
63.0 °F
Feels Like 63.0 °F
N
2.7
Wind Variable Wind from ESE

Today
High -- | Low -- °F
--% Chance of Precip.
Yesterday
High -- | Low -- °F
Precip. -- in
Pressure 30.31 in
Visibility 10.0 miles
Clouds Clear
Dew Point 28 °F
Humidity 27%
Rainfall 0.00 in
Snow Depth Not available.
7:19 AM 6:00 PM
Waning Crescent, 4% visible
METAR KEOE 061855Z AUTO 01009G14KT 10SM CLR 10/M06 A3031 RMK AO2
Pressure 30.31 in
Visibility 10.0 miles
Clouds Clear
Dew Point 28 °F
Humidity 27%
Rainfall 0.00 in
Snow Depth Not available.
7:19 AM 6:00 PM
Waning Crescent, 4% visible
METAR KEOE 061855Z AUTO 01009G14KT 10SM CLR 10/M06 A3031 RMK AO2

10-Day Weather Forecast

Almanac

Astronomy

Feb. 06, 2016 Rise Set
Actual Time
Civil Twilight
Nautical Twilight
Astronomical Twilight
Moon
Length of Visible Light
Length of Day
Tomorrow will be .
, % of the Moon is Illuminated

Today's Extremes

State Highs State Lows

Community

WunderPhotos

Upload Photos

1,891,033 photos uploaded!

WunderBlog® & News

Nearby

Air Quality

  Air Quality AQ Index Pollutant
Not available.

Snow Depth

Station Depth Elevation

Earthquake Activity

City Distance Mag. Time & Date
Minimum magnitude displayed is 2.5.

Coastal Water Temperatures

Place Temperature

Stations

Nearby Weather Stations

Station Location Temp. Windchill Dew Point Humidity Wind Precip. Elev Updated Type
                   

Watches & Warnings

There are currently no watches in effect.